sensor_id;sensor_type;location;lat;lon;timestamp;pressure;altitude;pressure_sealevel;temperature;humidity
81511;BME280;70931;48.796;8.440;2023-09-19T00:00:18;96869.75;;;16.40;85.63
81511;BME280;70931;48.796;8.440;2023-09-19T00:02:43;96877.16;;;16.44;84.99
81511;BME280;70931;48.796;8.440;2023-09-19T00:05:08;96873.88;;;16.42;83.46
81511;BME280;70931;48.796;8.440;2023-09-19T00:07:33;96879.34;;;16.29;85.15
81511;BME280;70931;48.796;8.440;2023-09-19T00:09:58;96875.97;;;16.40;83.22
81511;BME280;70931;48.796;8.440;2023-09-19T00:12:24;96872.09;;;16.68;81.22
81511;BME280;70931;48.796;8.440;2023-09-19T00:14:49;96879.34;;;16.67;83.38
81511;BME280;70931;48.796;8.440;2023-09-19T00:17:14;96886.16;;;16.70;83.57
81511;BME280;70931;48.796;8.440;2023-09-19T00:19:39;96886.09;;;16.76;80.28
81511;BME280;70931;48.796;8.440;2023-09-19T00:22:04;96873.13;;;16.67;82.52
81511;BME280;70931;48.796;8.440;2023-09-19T00:24:30;96887.72;;;16.84;80.36
81511;BME280;70931;48.796;8.440;2023-09-19T00:26:55;96868.63;;;16.85;78.91
81511;BME280;70931;48.796;8.440;2023-09-19T00:29:20;96883.22;;;17.02;79.53
81511;BME280;70931;48.796;8.440;2023-09-19T00:31:45;96880.53;;;17.02;79.63
81511;BME280;70931;48.796;8.440;2023-09-19T00:34:11;96875.03;;;16.91;81.14
81511;BME280;70931;48.796;8.440;2023-09-19T00:36:37;96849.28;;;16.70;82.29
81511;BME280;70931;48.796;8.440;2023-09-19T00:39:02;96857.28;;;16.83;78.62
81511;BME280;70931;48.796;8.440;2023-09-19T00:41:27;96869.53;;;17.04;78.91
81511;BME280;70931;48.796;8.440;2023-09-19T00:43:52;96868.47;;;17.05;79.68
81511;BME280;70931;48.796;8.440;2023-09-19T00:46:18;96870.25;;;16.93;81.44
81511;BME280;70931;48.796;8.440;2023-09-19T00:48:43;96875.22;;;16.96;81.84
81511;BME280;70931;48.796;8.440;2023-09-19T00:51:08;96857.44;;;16.88;79.79
81511;BME280;70931;48.796;8.440;2023-09-19T00:53:34;96877.00;;;17.02;79.16
81511;BME280;70931;48.796;8.440;2023-09-19T00:55:59;96873.56;;;16.95;79.74
81511;BME280;70931;48.796;8.440;2023-09-19T00:58:24;96881.50;;;17.08;78.15
81511;BME280;70931;48.796;8.440;2023-09-19T01:00:50;96878.06;;;17.01;77.88
81511;BME280;70931;48.796;8.440;2023-09-19T01:03:17;96895.78;;;17.15;77.24
81511;BME280;70931;48.796;8.440;2023-09-19T01:05:42;96890.38;;;17.15;78.38
81511;BME280;70931;48.796;8.440;2023-09-19T01:08:07;96872.25;;;17.04;78.24
81511;BME280;70931;48.796;8.440;2023-09-19T01:10:33;96885.00;;;17.15;76.96
81511;BME280;70931;48.796;8.440;2023-09-19T01:18:55;96910.63;;;17.24;76.80
81511;BME280;70931;48.796;8.440;2023-09-19T01:21:53;96895.34;;;17.18;75.86
81511;BME280;70931;48.796;8.440;2023-09-19T01:29:48;96902.19;;;17.14;77.42
81511;BME280;70931;48.796;8.440;2023-09-19T01:32:17;96904.78;;;17.27;76.25
81511;BME280;70931;48.796;8.440;2023-09-19T01:34:54;96903.97;;;17.27;75.86
81511;BME280;70931;48.796;8.440;2023-09-19T01:37:21;96908.53;;;17.26;76.15
81511;BME280;70931;48.796;8.440;2023-09-19T01:39:47;96913.03;;;17.32;75.12
81511;BME280;70931;48.796;8.440;2023-09-19T01:42:37;96914.22;;;17.36;75.56
81511;BME280;70931;48.796;8.440;2023-09-19T01:45:19;96893.69;;;17.17;75.54
81511;BME280;70931;48.796;8.440;2023-09-19T01:47:51;96919.91;;;17.28;75.40
81511;BME280;70931;48.796;8.440;2023-09-19T01:50:29;96891.56;;;17.19;75.39
81511;BME280;70931;48.796;8.440;2023-09-19T01:53:21;96926.03;;;17.42;75.83
81511;BME280;70931;48.796;8.440;2023-09-19T01:55:49;96906.31;;;17.41;74.73
81511;BME280;70931;48.796;8.440;2023-09-19T01:58:28;96890.69;;;17.25;74.37
81511;BME280;70931;48.796;8.440;2023-09-19T02:00:56;96898.97;;;17.30;74.38
81511;BME280;70931;48.796;8.440;2023-09-19T02:03:23;96914.34;;;17.48;73.81
81511;BME280;70931;48.796;8.440;2023-09-19T02:05:50;96919.06;;;17.52;74.44
81511;BME280;70931;48.796;8.440;2023-09-19T02:08:17;96917.25;;;17.46;73.96
81511;BME280;70931;48.796;8.440;2023-09-19T02:10:43;96914.56;;;17.46;74.55
81511;BME280;70931;48.796;8.440;2023-09-19T02:13:09;96907.59;;;17.39;74.45
81511;BME280;70931;48.796;8.440;2023-09-19T02:15:34;96913.75;;;17.46;73.71
81511;BME280;70931;48.796;8.440;2023-09-19T02:17:59;96945.63;;;17.55;73.69
81511;BME280;70931;48.796;8.440;2023-09-19T02:20:24;96916.59;;;17.51;73.75
81511;BME280;70931;48.796;8.440;2023-09-19T02:22:50;96917.03;;;17.48;73.79
81511;BME280;70931;48.796;8.440;2023-09-19T02:25:15;96936.13;;;17.46;74.33
81511;BME280;70931;48.796;8.440;2023-09-19T02:27:40;96904.66;;;17.40;73.96
81511;BME280;70931;48.796;8.440;2023-09-19T02:30:06;96915.97;;;17.55;73.20
81511;BME280;70931;48.796;8.440;2023-09-19T02:32:31;96909.78;;;17.48;73.93
81511;BME280;70931;48.796;8.440;2023-09-19T02:34:57;96934.84;;;17.55;75.81
81511;BME280;70931;48.796;8.440;2023-09-19T02:37:22;96937.53;;;17.55;74.75
81511;BME280;70931;48.796;8.440;2023-09-19T02:39:47;96930.50;;;17.54;74.33
81511;BME280;70931;48.796;8.440;2023-09-19T02:42:13;96930.69;;;17.53;75.59
81511;BME280;70931;48.796;8.440;2023-09-19T02:44:38;96932.34;;;17.54;74.15
81511;BME280;70931;48.796;8.440;2023-09-19T02:47:04;96939.34;;;17.61;73.45
81511;BME280;70931;48.796;8.440;2023-09-19T02:49:29;96926.09;;;17.53;73.70
81511;BME280;70931;48.796;8.440;2023-09-19T02:51:54;96940.53;;;17.65;73.84
81511;BME280;70931;48.796;8.440;2023-09-19T02:54:19;96943.13;;;17.54;73.90
81511;BME280;70931;48.796;8.440;2023-09-19T02:56:45;96946.03;;;17.52;74.07
81511;BME280;70931;48.796;8.440;2023-09-19T02:59:10;96948.91;;;17.57;74.02
81511;BME280;70931;48.796;8.440;2023-09-19T03:01:36;96955.59;;;17.48;74.86
81511;BME280;70931;48.796;8.440;2023-09-19T03:04:01;96968.25;;;17.48;74.82
81511;BME280;70931;48.796;8.440;2023-09-19T03:06:26;96960.16;;;17.48;73.84
81511;BME280;70931;48.796;8.440;2023-09-19T03:08:52;96955.59;;;17.48;74.64
81511;BME280;70931;48.796;8.440;2023-09-19T03:11:18;96957.13;;;17.44;73.84
81511;BME280;70931;48.796;8.440;2023-09-19T03:13:43;96960.75;;;17.56;73.98
81511;BME280;70931;48.796;8.440;2023-09-19T03:16:08;96955.97;;;17.58;73.85
81511;BME280;70931;48.796;8.440;2023-09-19T03:18:34;96966.09;;;17.63;73.83
81511;BME280;70931;48.796;8.440;2023-09-19T03:20:59;96947.66;;;17.53;73.43
81511;BME280;70931;48.796;8.440;2023-09-19T03:23:25;96961.38;;;17.58;73.98
81511;BME280;70931;48.796;8.440;2023-09-19T03:25:50;96963.44;;;17.56;74.39
81511;BME280;70931;48.796;8.440;2023-09-19T03:28:15;96980.53;;;17.44;75.55
81511;BME280;70931;48.796;8.440;2023-09-19T03:30:41;96966.22;;;17.43;76.53
81511;BME280;70931;48.796;8.440;2023-09-19T03:33:06;96976.06;;;17.31;77.54
81511;BME280;70931;48.796;8.440;2023-09-19T03:35:31;96980.69;;;17.24;78.48
81511;BME280;70931;48.796;8.440;2023-09-19T03:37:57;96969.41;;;17.09;80.29
81511;BME280;70931;48.796;8.440;2023-09-19T03:40:22;96961.19;;;16.97;78.86
81511;BME280;70931;48.796;8.440;2023-09-19T03:42:47;96962.34;;;16.77;81.93
81511;BME280;70931;48.796;8.440;2023-09-19T03:45:12;96960.28;;;16.79;80.91
81511;BME280;70931;48.796;8.440;2023-09-19T03:47:40;96972.69;;;16.80;81.12
81511;BME280;70931;48.796;8.440;2023-09-19T03:50:06;96964.78;;;16.85;80.66
81511;BME280;70931;48.796;8.440;2023-09-19T03:52:32;96966.09;;;16.76;81.02
81511;BME280;70931;48.796;8.440;2023-09-19T03:54:57;96977.25;;;16.79;81.35
81511;BME280;70931;48.796;8.440;2023-09-19T03:57:22;96980.38;;;16.76;81.77
81511;BME280;70931;48.796;8.440;2023-09-19T03:59:47;96988.44;;;16.76;81.81
81511;BME280;70931;48.796;8.440;2023-09-19T04:02:13;96984.31;;;16.74;82.27
81511;BME280;70931;48.796;8.440;2023-09-19T04:04:38;96985.59;;;16.65;82.79
81511;BME280;70931;48.796;8.440;2023-09-19T04:07:03;96974.84;;;16.65;83.52
81511;BME280;70931;48.796;8.440;2023-09-19T04:09:29;96985.97;;;16.75;82.89
81511;BME280;70931;48.796;8.440;2023-09-19T04:11:54;96959.09;;;16.62;82.74
81511;BME280;70931;48.796;8.440;2023-09-19T04:14:19;96986.50;;;16.59;83.68
81511;BME280;70931;48.796;8.440;2023-09-19T04:16:44;96982.38;;;16.43;83.90
81511;BME280;70931;48.796;8.440;2023-09-19T04:19:09;96996.63;;;16.50;84.28
81511;BME280;70931;48.796;8.440;2023-09-19T04:21:35;97014.88;;;16.55;84.06
81511;BME280;70931;48.796;8.440;2023-09-19T04:24:00;97020.06;;;16.36;82.36
81511;BME280;70931;48.796;8.440;2023-09-19T04:26:25;97032.13;;;16.08;82.32
81511;BME280;70931;48.796;8.440;2023-09-19T04:28:50;97032.56;;;16.05;83.58
81511;BME280;70931;48.796;8.440;2023-09-19T04:31:16;97030.97;;;15.77;83.96
81511;BME280;70931;48.796;8.440;2023-09-19T04:33:41;97018.13;;;15.86;83.46
81511;BME280;70931;48.796;8.440;2023-09-19T04:36:06;96991.06;;;15.48;84.45
81511;BME280;70931;48.796;8.440;2023-09-19T04:38:31;97024.72;;;15.90;83.20
81511;BME280;70931;48.796;8.440;2023-09-19T04:40:57;97035.28;;;15.85;84.54
81511;BME280;70931;48.796;8.440;2023-09-19T04:43:22;97030.53;;;15.80;84.44
81511;BME280;70931;48.796;8.440;2023-09-19T04:45:48;97036.31;;;15.64;83.59
81511;BME280;70931;48.796;8.440;2023-09-19T04:48:13;97035.09;;;15.80;83.66
81511;BME280;70931;48.796;8.440;2023-09-19T04:50:38;97038.00;;;15.72;84.37
81511;BME280;70931;48.796;8.440;2023-09-19T04:53:04;97044.78;;;15.61;84.92
81511;BME280;70931;48.796;8.440;2023-09-19T04:55:29;97055.78;;;15.66;81.98
81511;BME280;70931;48.796;8.440;2023-09-19T04:57:54;97030.13;;;15.51;84.33
81511;BME280;70931;48.796;8.440;2023-09-19T05:00:21;97058.03;;;15.63;83.64
81511;BME280;70931;48.796;8.440;2023-09-19T05:02:52;97083.06;;;15.63;83.82
81511;BME280;70931;48.796;8.440;2023-09-19T05:05:18;97066.31;;;15.61;83.00
81511;BME280;70931;48.796;8.440;2023-09-19T05:07:43;97070.88;;;15.74;83.64
81511;BME280;70931;48.796;8.440;2023-09-19T05:10:09;97080.19;;;15.71;83.51
81511;BME280;70931;48.796;8.440;2023-09-19T05:12:34;97084.72;;;15.58;83.65
81511;BME280;70931;48.796;8.440;2023-09-19T05:15:00;97068.16;;;15.48;82.80
81511;BME280;70931;48.796;8.440;2023-09-19T05:17:25;97080.16;;;15.52;81.73
81511;BME280;70931;48.796;8.440;2023-09-19T05:19:50;97084.72;;;15.58;82.01
81511;BME280;70931;48.796;8.440;2023-09-19T05:22:15;97092.56;;;15.53;82.36
81511;BME280;70931;48.796;8.440;2023-09-19T05:24:40;97099.19;;;15.57;81.94
81511;BME280;70931;48.796;8.440;2023-09-19T05:27:06;97099.56;;;15.47;82.56
81511;BME280;70931;48.796;8.440;2023-09-19T05:29:31;97092.72;;;15.31;83.83
81511;BME280;70931;48.796;8.440;2023-09-19T05:31:56;97076.88;;;15.50;82.21
81511;BME280;70931;48.796;8.440;2023-09-19T05:34:21;97104.59;;;15.63;82.12
81511;BME280;70931;48.796;8.440;2023-09-19T05:36:46;97093.78;;;15.44;82.95
81511;BME280;70931;48.796;8.440;2023-09-19T05:39:12;97087.53;;;15.36;82.11
81511;BME280;70931;48.796;8.440;2023-09-19T05:41:37;97092.28;;;15.41;83.80
81511;BME280;70931;48.796;8.440;2023-09-19T05:44:03;97102.25;;;15.40;82.19
81511;BME280;70931;48.796;8.440;2023-09-19T05:46:28;97101.63;;;15.45;82.93
81511;BME280;70931;48.796;8.440;2023-09-19T05:48:53;97094.53;;;15.24;83.48
81511;BME280;70931;48.796;8.440;2023-09-19T05:51:18;97079.69;;;15.28;82.46
81511;BME280;70931;48.796;8.440;2023-09-19T05:53:44;97121.66;;;15.43;82.29
81511;BME280;70931;48.796;8.440;2023-09-19T05:56:09;97115.69;;;15.40;83.21
81511;BME280;70931;48.796;8.440;2023-09-19T05:58:34;97113.22;;;15.46;82.30
81511;BME280;70931;48.796;8.440;2023-09-19T06:00:59;97108.47;;;15.48;83.59
81511;BME280;70931;48.796;8.440;2023-09-19T06:03:24;97109.47;;;15.40;83.04
81511;BME280;70931;48.796;8.440;2023-09-19T06:05:50;97105.94;;;15.39;82.91
81511;BME280;70931;48.796;8.440;2023-09-19T06:08:15;97105.38;;;15.51;83.42
81511;BME280;70931;48.796;8.440;2023-09-19T06:10:40;97116.53;;;15.48;83.64
81511;BME280;70931;48.796;8.440;2023-09-19T06:13:05;97111.13;;;15.34;83.46
81511;BME280;70931;48.796;8.440;2023-09-19T06:15:31;97106.16;;;15.45;83.93
81511;BME280;70931;48.796;8.440;2023-09-19T06:17:56;97107.63;;;15.40;84.28
81511;BME280;70931;48.796;8.440;2023-09-19T06:20:23;97131.34;;;15.30;84.73
81511;BME280;70931;48.796;8.440;2023-09-19T06:22:49;97119.59;;;15.31;84.22
81511;BME280;70931;48.796;8.440;2023-09-19T06:25:16;97131.31;;;15.17;84.85
81511;BME280;70931;48.796;8.440;2023-09-19T06:27:41;97132.53;;;15.08;85.39
81511;BME280;70931;48.796;8.440;2023-09-19T06:30:07;97133.78;;;15.19;85.50
81511;BME280;70931;48.796;8.440;2023-09-19T06:32:32;97139.81;;;15.27;83.97
81511;BME280;70931;48.796;8.440;2023-09-19T06:34:57;97126.34;;;15.14;85.39
81511;BME280;70931;48.796;8.440;2023-09-19T06:37:22;97133.38;;;15.15;84.71
81511;BME280;70931;48.796;8.440;2023-09-19T06:39:48;97126.41;;;15.34;84.99
81511;BME280;70931;48.796;8.440;2023-09-19T06:42:13;97110.69;;;15.31;84.67
81511;BME280;70931;48.796;8.440;2023-09-19T06:44:38;97118.56;;;15.39;83.38
81511;BME280;70931;48.796;8.440;2023-09-19T06:47:04;97127.09;;;15.56;84.08
81511;BME280;70931;48.796;8.440;2023-09-19T06:49:29;97135.59;;;15.66;84.59
81511;BME280;70931;48.796;8.440;2023-09-19T06:51:55;97138.09;;;15.61;84.61
81511;BME280;70931;48.796;8.440;2023-09-19T06:54:20;97125.03;;;15.51;84.70
81511;BME280;70931;48.796;8.440;2023-09-19T06:56:45;97130.66;;;15.69;84.49
81511;BME280;70931;48.796;8.440;2023-09-19T06:59:11;97140.56;;;15.82;84.34
81511;BME280;70931;48.796;8.440;2023-09-19T07:01:36;97135.63;;;15.72;85.02
81511;BME280;70931;48.796;8.440;2023-09-19T07:04:01;97146.16;;;15.74;84.20
81511;BME280;70931;48.796;8.440;2023-09-19T07:06:26;97145.97;;;15.75;84.85
81511;BME280;70931;48.796;8.440;2023-09-19T07:08:52;97152.56;;;15.66;84.89
81511;BME280;70931;48.796;8.440;2023-09-19T07:11:17;97156.91;;;15.61;85.46
81511;BME280;70931;48.796;8.440;2023-09-19T07:13:42;97145.50;;;15.59;84.10
81511;BME280;70931;48.796;8.440;2023-09-19T07:16:07;97149.84;;;15.53;83.80
81511;BME280;70931;48.796;8.440;2023-09-19T07:18:32;97148.84;;;15.61;83.58
81511;BME280;70931;48.796;8.440;2023-09-19T07:20:58;97138.69;;;15.50;83.73
81511;BME280;70931;48.796;8.440;2023-09-19T07:23:23;97167.25;;;15.70;84.21
81511;BME280;70931;48.796;8.440;2023-09-19T07:25:49;97173.25;;;15.72;83.25
81511;BME280;70931;48.796;8.440;2023-09-19T07:28:15;97172.03;;;15.75;84.20
81511;BME280;70931;48.796;8.440;2023-09-19T07:30:40;97175.31;;;15.90;83.47
81511;BME280;70931;48.796;8.440;2023-09-19T07:33:06;97161.28;;;16.01;82.03
81511;BME280;70931;48.796;8.440;2023-09-19T07:35:31;97147.22;;;15.86;81.60
81511;BME280;70931;48.796;8.440;2023-09-19T07:37:57;97173.28;;;15.85;81.53
81511;BME280;70931;48.796;8.440;2023-09-19T07:40:22;97182.38;;;15.78;81.99
81511;BME280;70931;48.796;8.440;2023-09-19T07:42:47;97178.22;;;15.75;81.68
81511;BME280;70931;48.796;8.440;2023-09-19T07:45:13;97148.03;;;15.80;82.15
81511;BME280;70931;48.796;8.440;2023-09-19T07:47:38;97183.22;;;15.91;82.62
81511;BME280;70931;48.796;8.440;2023-09-19T07:50:04;97174.50;;;15.96;82.82
81511;BME280;70931;48.796;8.440;2023-09-19T07:52:29;97179.69;;;16.17;81.89
81511;BME280;70931;48.796;8.440;2023-09-19T07:54:55;97172.03;;;16.08;81.99
81511;BME280;70931;48.796;8.440;2023-09-19T07:57:20;97192.75;;;16.27;83.10
81511;BME280;70931;48.796;8.440;2023-09-19T07:59:46;97189.84;;;16.41;80.78
81511;BME280;70931;48.796;8.440;2023-09-19T08:02:11;97180.75;;;16.56;81.35
81511;BME280;70931;48.796;8.440;2023-09-19T08:04:36;97169.53;;;16.45;78.34
81511;BME280;70931;48.796;8.440;2023-09-19T08:07:02;97194.00;;;16.64;80.50
81511;BME280;70931;48.796;8.440;2023-09-19T08:09:27;97189.00;;;16.80;79.71
81511;BME280;70931;48.796;8.440;2023-09-19T08:11:52;97145.94;;;16.41;77.96
81511;BME280;70931;48.796;8.440;2023-09-19T08:14:17;97193.97;;;16.50;78.54
81511;BME280;70931;48.796;8.440;2023-09-19T08:16:43;97202.69;;;16.72;76.83
81511;BME280;70931;48.796;8.440;2023-09-19T08:19:09;97203.53;;;16.60;76.96
81511;BME280;70931;48.796;8.440;2023-09-19T08:21:35;97210.53;;;16.74;75.36
81511;BME280;70931;48.796;8.440;2023-09-19T08:24:00;97205.56;;;16.84;76.24
81511;BME280;70931;48.796;8.440;2023-09-19T08:26:25;97220.25;;;16.94;75.64
81511;BME280;70931;48.796;8.440;2023-09-19T08:28:50;97219.41;;;17.00;76.19
81511;BME280;70931;48.796;8.440;2023-09-19T08:31:15;97215.50;;;16.90;74.96
81511;BME280;70931;48.796;8.440;2023-09-19T08:33:41;97219.22;;;16.82;76.59
81511;BME280;70931;48.796;8.440;2023-09-19T08:36:06;97191.91;;;16.79;76.92
81511;BME280;70931;48.796;8.440;2023-09-19T08:38:32;97208.06;;;16.72;74.57
81511;BME280;70931;48.796;8.440;2023-09-19T08:40:59;97224.41;;;16.84;75.84
81511;BME280;70931;48.796;8.440;2023-09-19T08:43:25;97220.72;;;16.59;75.32
81511;BME280;70931;48.796;8.440;2023-09-19T08:48:29;97228.78;;;16.72;74.14
81511;BME280;70931;48.796;8.440;2023-09-19T08:51:07;97232.91;;;16.74;73.66
81511;BME280;70931;48.796;8.440;2023-09-19T08:55:59;97226.47;;;16.95;72.78
81511;BME280;70931;48.796;8.440;2023-09-19T08:58:32;97240.34;;;16.85;73.01
81511;BME280;70931;48.796;8.440;2023-09-19T09:01:00;97232.47;;;16.97;72.43
81511;BME280;70931;48.796;8.440;2023-09-19T09:03:25;97236.16;;;17.09;73.24
81511;BME280;70931;48.796;8.440;2023-09-19T09:05:51;97237.00;;;17.03;74.66
81511;BME280;70931;48.796;8.440;2023-09-19T09:08:19;97226.88;;;16.98;74.21
81511;BME280;70931;48.796;8.440;2023-09-19T09:10:44;97227.25;;;17.02;73.71
81511;BME280;70931;48.796;8.440;2023-09-19T09:13:10;97240.47;;;17.23;73.01
81511;BME280;70931;48.796;8.440;2023-09-19T09:15:36;97236.13;;;17.22;71.49
81511;BME280;70931;48.796;8.440;2023-09-19T09:18:02;97238.47;;;17.70;70.60
81511;BME280;70931;48.796;8.440;2023-09-19T09:20:28;97236.00;;;17.99;72.01
81511;BME280;70931;48.796;8.440;2023-09-19T09:22:54;97236.31;;;18.16;73.69
81511;BME280;70931;48.796;8.440;2023-09-19T09:25:21;97226.91;;;18.25;72.40
81511;BME280;70931;48.796;8.440;2023-09-19T09:27:58;97226.84;;;18.32;70.12
81511;BME280;70931;48.796;8.440;2023-09-19T09:30:35;97232.31;;;18.25;68.25
81511;BME280;70931;48.796;8.440;2023-09-19T09:33:11;97228.22;;;18.41;67.61
81511;BME280;70931;48.796;8.440;2023-09-19T09:35:46;97211.44;;;19.24;67.47
81511;BME280;70931;48.796;8.440;2023-09-19T09:38:12;97224.53;;;19.94;62.13
81511;BME280;70931;48.796;8.440;2023-09-19T09:40:48;97217.66;;;19.79;62.08
81511;BME280;70931;48.796;8.440;2023-09-19T09:43:34;97218.44;;;20.10;60.30
81511;BME280;70931;48.796;8.440;2023-09-19T09:46:13;97230.03;;;21.04;60.10
81511;BME280;70931;48.796;8.440;2023-09-19T09:48:39;97234.84;;;21.49;58.53
81511;BME280;70931;48.796;8.440;2023-09-19T09:51:04;97237.75;;;21.59;55.96
81511;BME280;70931;48.796;8.440;2023-09-19T09:53:30;97235.56;;;21.44;57.56
81511;BME280;70931;48.796;8.440;2023-09-19T09:56:04;97244.91;;;21.14;57.57
81511;BME280;70931;48.796;8.440;2023-09-19T09:58:29;97236.72;;;20.14;57.94
81511;BME280;70931;48.796;8.440;2023-09-19T10:00:55;97248.31;;;19.92;60.86
81511;BME280;70931;48.796;8.440;2023-09-19T10:03:21;97225.66;;;19.56;62.17
81511;BME280;70931;48.796;8.440;2023-09-19T10:05:53;97230.06;;;19.32;62.40
81511;BME280;70931;48.796;8.440;2023-09-19T10:08:18;97239.25;;;18.89;62.81
81511;BME280;70931;48.796;8.440;2023-09-19T10:10:44;97245.63;;;18.76;63.84
81511;BME280;70931;48.796;8.440;2023-09-19T10:13:10;97249.75;;;18.78;65.04
81511;BME280;70931;48.796;8.440;2023-09-19T10:15:37;97256.19;;;18.59;65.37
81511;BME280;70931;48.796;8.440;2023-09-19T10:18:06;97249.72;;;18.29;66.87
81511;BME280;70931;48.796;8.440;2023-09-19T10:20:32;97254.69;;;18.32;68.25
81511;BME280;70931;48.796;8.440;2023-09-19T10:22:57;97253.28;;;18.23;66.46
81511;BME280;70931;48.796;8.440;2023-09-19T10:25:26;97258.09;;;18.21;66.41
81511;BME280;70931;48.796;8.440;2023-09-19T10:27:52;97247.34;;;18.70;65.47
81511;BME280;70931;48.796;8.440;2023-09-19T10:30:19;97230.34;;;19.06;64.74
81511;BME280;70931;48.796;8.440;2023-09-19T10:32:45;97236.69;;;19.18;64.48
81511;BME280;70931;48.796;8.440;2023-09-19T10:35:11;97237.19;;;19.63;62.54
81511;BME280;70931;48.796;8.440;2023-09-19T10:37:37;97244.97;;;19.60;62.33
81511;BME280;70931;48.796;8.440;2023-09-19T10:40:03;97245.91;;;20.43;61.60
81511;BME280;70931;48.796;8.440;2023-09-19T10:42:30;97242.06;;;20.74;59.83
81511;BME280;70931;48.796;8.440;2023-09-19T10:44:57;97220.84;;;21.06;54.80
81511;BME280;70931;48.796;8.440;2023-09-19T10:47:24;97237.22;;;21.85;55.31
81511;BME280;70931;48.796;8.440;2023-09-19T10:49:50;97257.13;;;22.31;52.73
81511;BME280;70931;48.796;8.440;2023-09-19T10:52:19;97239.34;;;22.40;52.06
81511;BME280;70931;48.796;8.440;2023-09-19T10:54:48;97237.84;;;23.70;50.17
81511;BME280;70931;48.796;8.440;2023-09-19T10:57:19;97231.09;;;24.21;47.61
81511;BME280;70931;48.796;8.440;2023-09-19T11:00:04;97225.06;;;24.19;46.36
81511;BME280;70931;48.796;8.440;2023-09-19T11:02:29;97233.25;;;24.19;44.98
81511;BME280;70931;48.796;8.440;2023-09-19T11:05:11;97212.34;;;24.03;45.81
81511;BME280;70931;48.796;8.440;2023-09-19T11:07:56;97225.78;;;23.45;45.24
81511;BME280;70931;48.796;8.440;2023-09-19T11:10:51;97234.06;;;23.33;45.74
81511;BME280;70931;48.796;8.440;2023-09-19T11:13:24;97237.28;;;23.47;44.48
81511;BME280;70931;48.796;8.440;2023-09-19T11:26:42;97219.78;;;25.97;40.29
81511;BME280;70931;48.796;8.440;2023-09-19T11:29:27;97218.81;;;26.48;38.60
81511;BME280;70931;48.796;8.440;2023-09-19T11:31:52;97211.16;;;26.50;38.85
81511;BME280;70931;48.796;8.440;2023-09-19T11:40:10;97220.69;;;27.44;34.83
81511;BME280;70931;48.796;8.440;2023-09-19T11:42:46;97205.59;;;27.56;34.52
81511;BME280;70931;48.796;8.440;2023-09-19T11:48:06;97197.47;;;29.12;31.43
81511;BME280;70931;48.796;8.440;2023-09-19T11:50:32;97196.13;;;29.38;32.22
81511;BME280;70931;48.796;8.440;2023-09-19T11:52:57;97205.03;;;28.18;32.21
81511;BME280;70931;48.796;8.440;2023-09-19T11:55:25;97184.19;;;28.95;31.81
81511;BME280;70931;48.796;8.440;2023-09-19T11:57:50;97194.16;;;29.15;33.56
81511;BME280;70931;48.796;8.440;2023-09-19T12:00:20;97197.72;;;28.48;31.57
81511;BME280;70931;48.796;8.440;2023-09-19T12:02:47;97206.56;;;27.86;32.62
81511;BME280;70931;48.796;8.440;2023-09-19T12:05:14;97190.31;;;27.25;35.42
81511;BME280;70931;48.796;8.440;2023-09-19T12:07:43;97201.81;;;27.37;34.35
81511;BME280;70931;48.796;8.440;2023-09-19T12:10:09;97191.44;;;27.19;33.94
81511;BME280;70931;48.796;8.440;2023-09-19T12:12:34;97188.34;;;27.51;36.99
81511;BME280;70931;48.796;8.440;2023-09-19T12:14:59;97203.47;;;26.27;34.48
81511;BME280;70931;48.796;8.440;2023-09-19T12:17:41;97193.66;;;26.36;35.90
81511;BME280;70931;48.796;8.440;2023-09-19T12:20:06;97182.97;;;25.47;36.26
81511;BME280;70931;48.796;8.440;2023-09-19T12:22:42;97204.56;;;26.46;34.84
81511;BME280;70931;48.796;8.440;2023-09-19T12:25:08;97173.94;;;26.29;34.77
81511;BME280;70931;48.796;8.440;2023-09-19T12:27:42;97186.00;;;27.09;35.10
81511;BME280;70931;48.796;8.440;2023-09-19T12:30:07;97177.25;;;26.31;35.63
81511;BME280;70931;48.796;8.440;2023-09-19T12:32:35;97192.34;;;25.62;36.63
81511;BME280;70931;48.796;8.440;2023-09-19T12:35:00;97175.03;;;26.38;37.82
81511;BME280;70931;48.796;8.440;2023-09-19T12:37:25;97184.63;;;26.61;37.22
81511;BME280;70931;48.796;8.440;2023-09-19T12:39:51;97153.19;;;26.89;34.80
81511;BME280;70931;48.796;8.440;2023-09-19T12:42:20;97159.44;;;26.64;35.43
81511;BME280;70931;48.796;8.440;2023-09-19T12:44:48;97170.41;;;26.54;34.98
81511;BME280;70931;48.796;8.440;2023-09-19T12:47:18;97163.88;;;27.69;33.51
81511;BME280;70931;48.796;8.440;2023-09-19T12:50:15;97164.81;;;28.09;31.77
81511;BME280;70931;48.796;8.440;2023-09-19T12:52:43;97161.94;;;28.29;31.62
81511;BME280;70931;48.796;8.440;2023-09-19T12:55:26;97158.63;;;26.58;34.69
81511;BME280;70931;48.796;8.440;2023-09-19T13:00:39;97151.53;;;24.56;38.43
81511;BME280;70931;48.796;8.440;2023-09-19T13:03:18;97158.44;;;25.58;37.73
81511;BME280;70931;48.796;8.440;2023-09-19T13:08:24;97165.94;;;24.52;39.21
81511;BME280;70931;48.796;8.440;2023-09-19T13:11:20;97153.53;;;23.80;39.65
81511;BME280;70931;48.796;8.440;2023-09-19T13:13:47;97152.22;;;25.20;38.54
81511;BME280;70931;48.796;8.440;2023-09-19T13:16:13;97143.84;;;26.65;35.18
81511;BME280;70931;48.796;8.440;2023-09-19T13:18:43;97138.97;;;27.61;35.25
81511;BME280;70931;48.796;8.440;2023-09-19T13:21:09;97135.53;;;28.38;35.29
81511;BME280;70931;48.796;8.440;2023-09-19T13:23:34;97139.38;;;29.00;31.69
81511;BME280;70931;48.796;8.440;2023-09-19T13:25:59;97140.91;;;29.11;34.23
81511;BME280;70931;48.796;8.440;2023-09-19T13:28:25;97139.16;;;28.28;32.80
81511;BME280;70931;48.796;8.440;2023-09-19T13:30:50;97141.50;;;27.52;31.38
81511;BME280;70931;48.796;8.440;2023-09-19T13:33:15;97140.47;;;25.77;34.52
81511;BME280;70931;48.796;8.440;2023-09-19T13:35:40;97137.31;;;26.25;33.67
81511;BME280;70931;48.796;8.440;2023-09-19T13:38:06;97140.56;;;27.77;32.77
81511;BME280;70931;48.796;8.440;2023-09-19T13:40:32;97134.63;;;27.60;31.64